Time;durP1;ratioP1;P1;durP2;ratioP2;P2;SDS_P1;SDS_P2;PMS_P1;PMS_P2;Temp;Humidity;BMP_temperature;BMP_pressure;BME280_temperature;BME280_humidity;BME280_pressure;Samples;Min_cycle;Max_cycle;Signal;HPM_P1;HPM_P2
2023/03/22 00:02:00;;;;;;;17.37;15.57;;;10.80;99.90;;;;;;4990142;28;20281;-77
2023/03/22 00:04:26;;;;;;;18.83;16.33;;;10.80;99.90;;;;;;4984434;28;20220;-76
2023/03/22 00:06:52;;;;;;;18.40;15.43;;;10.80;99.90;;;;;;4988667;28;20191;-79
2023/03/22 00:09:20;;;;;;;17.77;14.90;;;10.80;99.90;;;;;;4970288;28;20210;-77
2023/03/22 00:11:49;;;;;;;23.87;16.43;;;10.70;99.90;;;;;;4988823;28;20561;-77
2023/03/22 00:14:16;;;;;;;16.90;13.90;;;10.70;99.90;;;;;;4989293;28;20214;-75
2023/03/22 00:16:41;;;;;;;22.20;16.17;;;10.60;99.90;;;;;;4988015;28;20279;-75
2023/03/22 00:19:06;;;;;;;19.70;16.00;;;10.60;99.90;;;;;;4987532;28;20618;-73
2023/03/22 00:21:32;;;;;;;20.50;16.07;;;10.50;99.90;;;;;;4990898;28;20198;-72
2023/03/22 00:23:58;;;;;;;21.23;18.10;;;10.50;99.90;;;;;;4987651;28;20723;-70
2023/03/22 00:26:23;;;;;;;19.47;15.87;;;10.50;99.90;;;;;;4986995;28;20187;-77
2023/03/22 00:28:49;;;;;;;20.37;17.00;;;10.50;99.90;;;;;;4985690;28;20209;-78
2023/03/22 00:31:14;;;;;;;19.07;15.83;;;10.40;99.90;;;;;;4988487;28;20708;-77
2023/03/22 00:33:40;;;;;;;23.17;15.93;;;10.30;99.90;;;;;;4987625;28;20949;-81
2023/03/22 00:36:09;;;;;;;17.13;14.80;;;10.20;99.90;;;;;;4988374;28;20202;-80
2023/03/22 00:38:38;;;;;;;22.23;16.10;;;10.10;99.90;;;;;;4986996;28;20263;-80
2023/03/22 00:41:06;;;;;;;20.27;16.13;;;10.10;99.90;;;;;;4988477;28;20258;-78
2023/03/22 00:43:31;;;;;;;24.00;16.73;;;10.10;99.90;;;;;;4985745;28;20263;-77
2023/03/22 00:45:57;;;;;;;21.03;15.83;;;10.10;99.90;;;;;;4986897;28;20197;-75
2023/03/22 00:48:22;;;;;;;22.00;15.90;;;10.00;99.90;;;;;;4986362;28;20202;-76
2023/03/22 00:50:48;;;;;;;21.23;16.43;;;9.90;99.90;;;;;;4991114;28;20556;-77
2023/03/22 00:53:13;;;;;;;20.93;16.90;;;9.90;99.90;;;;;;4986989;28;20626;-77
2023/03/22 00:55:39;;;;;;;21.47;16.03;;;9.80;99.90;;;;;;4987261;28;20201;-76
2023/03/22 00:58:04;;;;;;;22.13;16.93;;;9.80;99.90;;;;;;4987541;28;20306;-77
2023/03/22 01:00:32;;;;;;;21.30;17.47;;;9.70;99.90;;;;;;4986394;28;20690;-67
2023/03/22 01:02:58;;;;;;;22.07;17.47;;;9.80;99.90;;;;;;4984932;28;20222;-63
2023/03/22 01:05:24;;;;;;;27.13;17.77;;;9.70;99.90;;;;;;4988334;28;20201;-63
2023/03/22 01:07:50;;;;;;;27.37;18.23;;;9.70;99.90;;;;;;4984269;28;20195;-63
2023/03/22 01:10:17;;;;;;;21.80;17.47;;;9.70;99.90;;;;;;4987601;28;20691;-62
2023/03/22 01:12:42;;;;;;;22.27;17.80;;;9.70;99.90;;;;;;4983296;28;20696;-64
2023/03/22 01:15:09;;;;;;;19.43;17.07;;;9.80;99.90;;;;;;4986417;28;20217;-64
2023/03/22 01:17:34;;;;;;;19.63;15.67;;;9.80;99.90;;;;;;4986352;28;20200;-64
2023/03/22 01:20:00;;;;;;;23.07;16.97;;;9.80;99.90;;;;;;4985317;28;20266;-65
2023/03/22 01:22:26;;;;;;;21.13;17.63;;;9.80;99.90;;;;;;4985767;28;20245;-64
2023/03/22 01:24:51;;;;;;;23.80;18.53;;;9.80;99.90;;;;;;4986986;28;20556;-64
2023/03/22 01:27:17;;;;;;;23.03;18.73;;;9.80;99.90;;;;;;4984828;28;20196;-65
2023/03/22 01:29:42;;;;;;;27.17;17.97;;;9.80;99.90;;;;;;4985365;28;20249;-64
2023/03/22 01:32:08;;;;;;;25.10;17.57;;;9.80;99.90;;;;;;4987279;28;20209;-64
2023/03/22 01:34:33;;;;;;;19.43;17.33;;;9.80;99.90;;;;;;4983615;28;20224;-71
2023/03/22 01:36:59;;;;;;;20.30;16.77;;;9.70;99.90;;;;;;4985996;28;20205;-65
2023/03/22 01:39:26;;;;;;;17.33;15.37;;;9.70;99.90;;;;;;4987488;28;20209;-64
2023/03/22 01:41:51;;;;;;;22.27;18.20;;;9.70;99.90;;;;;;4986837;28;20264;-64
2023/03/22 01:44:19;;;;;;;23.13;18.20;;;9.70;99.90;;;;;;4986815;28;20653;-65
2023/03/22 01:46:47;;;;;;;21.77;17.10;;;9.70;99.90;;;;;;4985209;28;20206;-64
2023/03/22 01:49:32;;;;;;;19.80;16.67;;;9.70;99.90;;;;;;4985591;28;20198;-65
2023/03/22 01:52:04;;;;;;;19.47;16.00;;;9.70;99.90;;;;;;4987068;28;20197;-63
2023/03/22 01:54:35;;;;;;;19.23;17.10;;;9.70;99.90;;;;;;4985692;28;20225;-64
2023/03/22 01:57:02;;;;;;;19.53;15.97;;;9.70;99.90;;;;;;4984645;28;20878;-64
2023/03/22 01:59:29;;;;;;;19.20;16.80;;;9.70;99.90;;;;;;4983447;28;20208;-64
2023/03/22 02:01:54;;;;;;;25.63;18.23;;;9.60;99.90;;;;;;4986006;28;20210;-65
2023/03/22 02:04:22;;;;;;;20.90;15.90;;;9.60;99.90;;;;;;4984193;28;20695;-63
2023/03/22 02:06:52;;;;;;;20.87;17.87;;;9.60;99.90;;;;;;4985970;28;20195;-64
2023/03/22 02:09:20;;;;;;;23.97;18.73;;;9.50;99.90;;;;;;4985311;28;20690;-65
2023/03/22 02:12:17;;;;;;;27.30;18.30;;;9.50;99.90;;;;;;4985516;28;20286;-71
2023/03/22 02:15:14;;;;;;;23.33;18.27;;;9.60;99.90;;;;;;4951572;28;20570;-68
2023/03/22 02:18:15;;;;;;;25.33;17.20;;;9.70;99.90;;;;;;4985236;28;20259;-70
2023/03/22 02:21:17;;;;;;;24.83;17.27;;;9.80;99.90;;;;;;4985851;28;20205;-75
2023/03/22 02:24:04;;;;;;;21.33;17.53;;;9.90;99.90;;;;;;4985168;28;20232;-64
2023/03/22 02:26:49;;;;;;;24.07;17.47;;;9.90;99.90;;;;;;4987845;28;20197;-64
2023/03/22 02:29:36;;;;;;;21.77;15.63;;;9.90;99.90;;;;;;4990282;28;20192;-63
2023/03/22 02:32:30;;;;;;;21.07;17.30;;;9.80;99.90;;;;;;4989670;28;20204;-63
2023/03/22 02:35:35;;;;;;;20.23;15.27;;;9.70;99.90;;;;;;4989108;28;20237;-64
2023/03/22 02:38:13;;;;;;;20.87;16.07;;;9.70;99.90;;;;;;4988914;28;20668;-63
2023/03/22 02:40:52;;;;;;;19.53;15.83;;;9.60;99.90;;;;;;4988998;28;20609;-63
2023/03/22 02:43:37;;;;;;;20.80;16.73;;;9.60;99.90;;;;;;4987058;28;20213;-64
2023/03/22 02:46:29;;;;;;;19.33;16.60;;;9.60;99.90;;;;;;4989728;28;20234;-64
2023/03/22 02:49:25;;;;;;;17.57;15.60;;;9.60;99.90;;;;;;4988823;28;20283;-63
2023/03/22 02:52:16;;;;;;;18.27;15.43;;;9.50;99.90;;;;;;4986779;28;20215;-63
2023/03/22 02:55:03;;;;;;;22.13;16.57;;;9.50;99.90;;;;;;4980035;28;20697;-64
2023/03/22 02:57:42;;;;;;;19.37;15.90;;;9.50;99.90;;;;;;4995544;28;20673;-63
2023/03/22 03:00:11;;;;;;;22.77;16.43;;;9.60;99.90;;;;;;4994702;28;20562;-63
2023/03/22 03:02:41;;;;;;;18.97;14.73;;;9.50;99.90;;;;;;4989473;28;20226;-64
2023/03/22 03:05:08;;;;;;;18.90;15.80;;;9.50;99.90;;;;;;4989820;28;20203;-65
2023/03/22 03:07:33;;;;;;;21.83;16.83;;;9.40;99.90;;;;;;4985100;28;20304;-64
2023/03/22 03:10:00;;;;;;;16.30;14.50;;;9.40;99.90;;;;;;4987030;28;20297;-64
2023/03/22 03:12:27;;;;;;;21.00;15.50;;;9.40;99.90;;;;;;4989029;28;20288;-64
2023/03/22 03:14:53;;;;;;;20.17;15.73;;;9.30;99.90;;;;;;4989133;28;20304;-63
2023/03/22 03:17:28;;;;;;;19.40;16.13;;;9.30;99.90;;;;;;4985662;28;20609;-70
2023/03/22 03:20:28;;;;;;;20.20;16.13;;;9.20;99.90;;;;;;4986410;28;20213;-65
2023/03/22 03:23:13;;;;;;;22.43;16.03;;;9.20;99.90;;;;;;4988327;28;20220;-63
2023/03/22 03:25:50;;;;;;;21.60;16.10;;;9.10;99.90;;;;;;4988589;28;20205;-64
2023/03/22 03:28:36;;;;;;;20.17;15.33;;;9.10;99.90;;;;;;4987847;28;20195;-64
2023/03/22 03:31:08;;;;;;;21.97;15.50;;;9.10;99.90;;;;;;4985677;28;20773;-65
2023/03/22 03:33:36;;;;;;;21.70;15.77;;;9.10;99.90;;;;;;4997279;28;20331;-63
2023/03/22 03:36:08;;;;;;;23.50;17.47;;;9.10;99.90;;;;;;4995300;28;20667;-65
2023/03/22 03:38:38;;;;;;;21.20;16.53;;;9.10;99.90;;;;;;4996847;28;20291;-65
2023/03/22 03:41:08;;;;;;;21.83;16.20;;;9.10;99.90;;;;;;4997235;28;20755;-65
2023/03/22 03:43:36;;;;;;;21.13;17.13;;;9.10;99.90;;;;;;4997783;28;20299;-64
2023/03/22 03:46:01;;;;;;;18.50;15.57;;;9.20;99.90;;;;;;4997591;28;20208;-64
2023/03/22 03:48:30;;;;;;;18.73;15.13;;;9.20;99.90;;;;;;4998020;28;20278;-63
2023/03/22 03:50:58;;;;;;;18.87;16.17;;;9.30;99.90;;;;;;4997866;28;20710;-65
2023/03/22 03:53:24;;;;;;;19.53;15.10;;;9.30;99.90;;;;;;4996781;28;20243;-63
2023/03/22 03:55:49;;;;;;;23.23;16.40;;;9.30;99.90;;;;;;4995576;28;20307;-66
2023/03/22 03:58:17;;;;;;;15.77;14.07;;;9.40;99.90;;;;;;4997597;28;20372;-63
2023/03/22 04:00:45;;;;;;;17.77;15.23;;;9.40;99.90;;;;;;4997212;28;20222;-64
2023/03/22 04:03:11;;;;;;;18.03;15.33;;;9.40;99.90;;;;;;4997379;28;20724;-64
2023/03/22 04:05:37;;;;;;;18.53;15.00;;;9.40;99.90;;;;;;4997495;28;20227;-64
2023/03/22 04:08:03;;;;;;;19.17;14.97;;;9.50;99.90;;;;;;4995691;28;20710;-64
2023/03/22 04:10:28;;;;;;;18.27;13.67;;;9.50;99.90;;;;;;4996899;28;20197;-64
2023/03/22 04:12:54;;;;;;;19.33;14.57;;;9.50;99.90;;;;;;4996958;28;20213;-64
2023/03/22 04:15:19;;;;;;;17.20;13.90;;;9.50;99.90;;;;;;4997283;28;20252;-64
2023/03/22 04:17:45;;;;;;;16.47;14.77;;;9.50;99.90;;;;;;4997163;28;20209;-64
2023/03/22 04:20:12;;;;;;;15.87;14.20;;;9.50;99.90;;;;;;4995813;28;20216;-64
2023/03/22 04:22:39;;;;;;;16.43;13.57;;;9.50;99.90;;;;;;4994742;28;20225;-64
2023/03/22 04:25:10;;;;;;;15.63;13.70;;;9.60;99.90;;;;;;4997066;28;20210;-65
2023/03/22 04:27:37;;;;;;;15.00;12.83;;;9.60;99.90;;;;;;4997059;28;20258;-65
2023/03/22 04:30:04;;;;;;;15.53;14.00;;;9.60;99.90;;;;;;4996993;28;20478;-65
2023/03/22 04:32:29;;;;;;;16.47;14.80;;;9.50;99.90;;;;;;4994780;28;20240;-61
2023/03/22 04:34:55;;;;;;;18.73;14.77;;;9.50;99.90;;;;;;4997157;28;20242;-64
2023/03/22 04:37:25;;;;;;;16.27;14.23;;;9.50;99.90;;;;;;4996742;28;20566;-64
2023/03/22 04:39:51;;;;;;;18.60;14.33;;;9.40;99.90;;;;;;4996987;28;20241;-65
2023/03/22 04:42:17;;;;;;;18.07;15.43;;;9.40;99.90;;;;;;4990442;28;20198;-64
2023/03/22 04:44:43;;;;;;;19.60;14.53;;;9.40;99.90;;;;;;4987390;28;20584;-64
2023/03/22 04:47:08;;;;;;;17.90;15.40;;;9.30;99.90;;;;;;4987261;28;20245;-63
2023/03/22 04:49:34;;;;;;;17.03;13.80;;;9.30;99.90;;;;;;4988010;28;20644;-63
2023/03/22 04:51:59;;;;;;;16.23;14.53;;;9.30;99.90;;;;;;4987505;28;20574;-63
2023/03/22 04:54:25;;;;;;;18.40;15.40;;;9.30;99.90;;;;;;4987778;28;20622;-64
2023/03/22 04:56:50;;;;;;;16.53;14.80;;;9.30;99.90;;;;;;4985236;28;20201;-64
2023/03/22 04:59:19;;;;;;;15.23;13.57;;;9.30;99.90;;;;;;4986550;28;20243;-64
2023/03/22 05:01:45;;;;;;;16.63;14.17;;;9.30;99.90;;;;;;4986607;28;20229;-63
2023/03/22 05:04:11;;;;;;;19.27;14.40;;;9.30;99.90;;;;;;4986540;28;20224;-63
2023/03/22 05:06:39;;;;;;;20.23;14.30;;;9.30;99.90;;;;;;4985470;28;20208;-63
2023/03/22 05:09:05;;;;;;;16.77;14.93;;;9.30;99.90;;;;;;4985481;28;20204;-64
2023/03/22 05:11:30;;;;;;;16.50;14.43;;;9.40;99.90;;;;;;4986500;28;20199;-64
2023/03/22 05:13:56;;;;;;;18.83;14.93;;;9.40;99.90;;;;;;4986090;28;20432;-64
2023/03/22 05:16:23;;;;;;;17.33;13.57;;;9.40;99.90;;;;;;4986051;28;20295;-64
2023/03/22 05:18:53;;;;;;;17.10;13.93;;;9.40;99.90;;;;;;4984346;28;20255;-64
2023/03/22 05:21:20;;;;;;;15.87;14.27;;;9.40;99.90;;;;;;4986813;28;20287;-64
2023/03/22 05:23:48;;;;;;;15.63;13.33;;;9.40;99.90;;;;;;4986712;28;20226;-64
2023/03/22 05:26:15;;;;;;;16.00;14.17;;;9.40;99.90;;;;;;4987026;28;20210;-64
2023/03/22 05:28:41;;;;;;;17.67;14.53;;;9.40;99.90;;;;;;4984079;28;20229;-63
2023/03/22 05:31:09;;;;;;;15.97;13.40;;;9.40;99.90;;;;;;4985545;28;20283;-64
2023/03/22 05:33:35;;;;;;;16.73;13.17;;;9.40;99.90;;;;;;4985682;28;20230;-64
2023/03/22 05:36:00;;;;;;;17.63;13.83;;;9.40;99.90;;;;;;4985399;28;20213;-64
2023/03/22 05:38:27;;;;;;;17.47;13.03;;;9.50;99.90;;;;;;4985765;28;20393;-64
2023/03/22 05:40:52;;;;;;;16.20;14.27;;;9.40;99.90;;;;;;4984063;28;20301;-67
2023/03/22 05:43:18;;;;;;;15.23;13.20;;;9.40;99.90;;;;;;4968927;28;20225;-64
2023/03/22 05:45:44;;;;;;;15.10;12.30;;;9.40;99.90;;;;;;4986615;28;20234;-64
2023/03/22 05:48:10;;;;;;;15.53;12.77;;;9.30;99.90;;;;;;4986270;28;20963;-64
2023/03/22 05:50:36;;;;;;;18.43;14.17;;;9.30;99.90;;;;;;4986988;28;20219;-65
2023/03/22 05:53:02;;;;;;;20.50;13.97;;;9.30;99.90;;;;;;4983772;28;20676;-65
2023/03/22 05:55:29;;;;;;;16.93;13.57;;;9.40;99.90;;;;;;4985092;28;20239;-65
2023/03/22 05:57:55;;;;;;;16.70;14.27;;;9.40;99.90;;;;;;4984913;28;20211;-64
2023/03/22 06:00:22;;;;;;;18.70;13.17;;;9.40;99.90;;;;;;4985174;28;20363;-63
2023/03/22 06:02:49;;;;;;;13.87;12.37;;;9.40;99.90;;;;;;4985009;28;20225;-64
2023/03/22 06:05:16;;;;;;;18.13;13.73;;;9.40;99.90;;;;;;4985213;28;20249;-64
2023/03/22 06:07:42;;;;;;;14.93;13.33;;;9.40;99.90;;;;;;4985279;28;20224;-64
2023/03/22 06:10:11;;;;;;;16.93;12.70;;;9.40;99.90;;;;;;4985383;28;20225;-64
2023/03/22 06:12:37;;;;;;;19.07;13.83;;;9.40;99.90;;;;;;4985427;28;20248;-65
2023/03/22 06:15:03;;;;;;;18.67;13.73;;;9.50;99.90;;;;;;4986475;28;20308;-64
2023/03/22 06:17:29;;;;;;;17.90;13.17;;;9.50;99.90;;;;;;4986567;28;20214;-64
2023/03/22 06:19:54;;;;;;;16.70;13.87;;;9.50;99.90;;;;;;4984598;28;20214;-66
2023/03/22 06:22:21;;;;;;;15.87;12.93;;;9.50;99.90;;;;;;4985774;28;20201;-64
2023/03/22 06:24:47;;;;;;;18.30;14.40;;;9.50;99.90;;;;;;4986076;28;20205;-65
2023/03/22 06:27:13;;;;;;;14.40;12.83;;;9.50;99.90;;;;;;4986248;28;20204;-63
2023/03/22 06:29:39;;;;;;;13.80;12.43;;;9.50;99.90;;;;;;4985141;28;20688;-64
2023/03/22 06:32:05;;;;;;;16.40;13.03;;;9.60;99.90;;;;;;4985531;28;20211;-64
2023/03/22 06:34:31;;;;;;;17.50;13.40;;;9.60;99.90;;;;;;4984379;28;20344;-62
2023/03/22 06:36:58;;;;;;;17.27;14.03;;;9.70;99.90;;;;;;4985544;28;20226;-64
2023/03/22 06:39:24;;;;;;;18.83;13.17;;;9.70;99.90;;;;;;4985627;28;20210;-64
2023/03/22 06:41:50;;;;;;;17.07;13.33;;;9.70;99.90;;;;;;4984956;28;20205;-64
2023/03/22 06:44:15;;;;;;;18.33;13.17;;;9.70;99.90;;;;;;4983433;28;20300;-64
2023/03/22 06:46:41;;;;;;;16.13;13.43;;;9.70;99.90;;;;;;4985345;28;20222;-63
2023/03/22 06:49:06;;;;;;;16.10;13.33;;;9.80;99.90;;;;;;4985555;28;20267;-64
2023/03/22 06:51:32;;;;;;;14.30;12.67;;;9.80;99.90;;;;;;4985566;28;20205;-65
2023/03/22 06:53:58;;;;;;;14.07;12.40;;;9.90;99.90;;;;;;4986565;28;20198;-65
2023/03/22 06:56:24;;;;;;;16.17;12.07;;;10.00;99.90;;;;;;4985895;28;20203;-65
2023/03/22 06:58:53;;;;;;;18.93;12.70;;;10.10;99.90;;;;;;4983284;28;20217;-65
2023/03/22 07:01:19;;;;;;;16.03;12.50;;;10.10;99.90;;;;;;4985497;28;20214;-64
2023/03/22 07:03:45;;;;;;;13.50;11.93;;;10.20;99.90;;;;;;4984666;28;20216;-65
2023/03/22 07:06:11;;;;;;;13.67;12.27;;;10.30;99.90;;;;;;4984431;28;20209;-64
2023/03/22 07:08:36;;;;;;;16.83;14.03;;;10.30;99.90;;;;;;4982787;28;20216;-64
2023/03/22 07:11:03;;;;;;;13.67;12.13;;;10.40;99.90;;;;;;4987396;28;20201;-64
2023/03/22 07:13:29;;;;;;;13.30;11.83;;;10.50;99.90;;;;;;4988299;28;20509;-64
2023/03/22 07:15:56;;;;;;;17.33;12.63;;;10.40;99.90;;;;;;4992314;28;20670;-64
2023/03/22 07:18:22;;;;;;;14.43;11.50;;;10.40;99.90;;;;;;4988298;28;20313;-65
2023/03/22 07:20:48;;;;;;;16.90;13.33;;;10.50;99.90;;;;;;4989064;28;20201;-65
2023/03/22 07:23:15;;;;;;;12.73;11.43;;;10.50;99.90;;;;;;4988995;28;20641;-65
2023/03/22 07:25:41;;;;;;;17.93;12.67;;;10.60;99.90;;;;;;4988994;28;20778;-64
2023/03/22 07:28:06;;;;;;;14.30;12.07;;;10.70;99.90;;;;;;4988028;28;20240;-64
2023/03/22 07:30:36;;;;;;;15.77;11.33;;;10.70;99.90;;;;;;4986682;28;20690;-65
2023/03/22 07:33:02;;;;;;;14.77;11.83;;;10.90;99.90;;;;;;4988980;28;20209;-64
2023/03/22 07:35:27;;;;;;;14.63;12.17;;;10.90;99.90;;;;;;4988850;28;20292;-65
2023/03/22 07:37:53;;;;;;;17.30;12.80;;;11.00;99.90;;;;;;4988512;28;20200;-66
2023/03/22 07:40:19;;;;;;;14.30;11.80;;;10.90;99.90;;;;;;4989018;28;20208;-65
2023/03/22 07:42:47;;;;;;;14.97;11.43;;;11.00;99.90;;;;;;4986149;28;20712;-66
2023/03/22 07:45:12;;;;;;;13.73;11.13;;;11.00;99.90;;;;;;4987900;28;20202;-65
2023/03/22 07:47:38;;;;;;;12.77;11.33;;;11.10;99.90;;;;;;4978600;28;20209;-64
2023/03/22 07:50:04;;;;;;;14.80;11.27;;;11.20;99.90;;;;;;4978797;28;20204;-63
2023/03/22 07:52:29;;;;;;;13.37;11.83;;;11.20;99.90;;;;;;4979814;28;20212;-65
2023/03/22 07:54:55;;;;;;;13.70;12.07;;;11.20;99.90;;;;;;4976873;28;20658;-65
2023/03/22 07:57:20;;;;;;;12.67;11.33;;;11.30;99.90;;;;;;4978651;28;20290;-64
2023/03/22 07:59:46;;;;;;;14.03;10.87;;;11.30;99.90;;;;;;4978358;28;20614;-65
2023/03/22 08:02:11;;;;;;;14.20;12.00;;;11.40;99.90;;;;;;4978471;28;20361;-64
2023/03/22 08:04:37;;;;;;;15.07;11.70;;;11.40;99.90;;;;;;4978668;28;20219;-65
2023/03/22 08:07:02;;;;;;;13.70;11.60;;;11.50;99.90;;;;;;4977709;28;20647;-65
2023/03/22 08:09:28;;;;;;;14.23;11.77;;;11.60;99.90;;;;;;4979268;28;20195;-64
2023/03/22 08:11:53;;;;;;;11.97;10.37;;;11.70;99.90;;;;;;4978062;28;20202;-65
2023/03/22 08:14:19;;;;;;;13.10;11.07;;;11.90;99.90;;;;;;4978323;28;20216;-65
2023/03/22 08:16:45;;;;;;;12.73;11.17;;;12.10;99.90;;;;;;4977882;28;20208;-64
2023/03/22 08:19:11;;;;;;;14.63;10.97;;;12.30;99.90;;;;;;4977806;28;20215;-66
2023/03/22 08:21:37;;;;;;;13.67;11.17;;;12.30;99.90;;;;;;4976502;28;20201;-64
2023/03/22 08:24:03;;;;;;;14.67;10.83;;;12.20;99.90;;;;;;4977851;28;20260;-64
2023/03/22 08:26:29;;;;;;;14.47;10.63;;;12.30;99.90;;;;;;4977636;28;20207;-65
2023/03/22 08:28:55;;;;;;;14.57;10.77;;;12.40;99.90;;;;;;4978046;28;20203;-64
2023/03/22 08:31:21;;;;;;;14.97;10.37;;;12.40;99.90;;;;;;4977413;28;20205;-64
2023/03/22 08:33:47;;;;;;;11.43;10.33;;;12.50;99.90;;;;;;4977746;28;20685;-65
2023/03/22 08:36:16;;;;;;;12.67;10.47;;;12.50;99.90;;;;;;4977677;28;20217;-63
2023/03/22 08:38:43;;;;;;;14.20;9.90;;;12.70;99.90;;;;;;4977474;28;20256;-65
2023/03/22 08:41:09;;;;;;;14.23;10.33;;;12.90;99.90;;;;;;4976174;28;20546;-65
2023/03/22 08:43:35;;;;;;;14.50;10.57;;;13.10;99.90;;;;;;4978612;28;20647;-64
2023/03/22 08:46:00;;;;;;;10.33;9.23;;;13.30;99.90;;;;;;4977615;28;21434;-67
2023/03/22 08:48:28;;;;;;;11.63;10.43;;;13.30;99.90;;;;;;4993808;28;20724;-65
2023/03/22 08:50:54;;;;;;;15.10;10.57;;;13.20;99.90;;;;;;4996683;28;20550;-65
2023/03/22 08:53:19;;;;;;;11.63;10.53;;;13.20;99.90;;;;;;4995549;28;20358;-65
2023/03/22 08:55:44;;;;;;;11.33;10.00;;;13.20;99.90;;;;;;4995133;28;20846;-78
2023/03/22 08:58:15;;;;;;;15.60;9.77;;;13.30;99.90;;;;;;4978196;28;20201;-78
2023/03/22 09:00:41;;;;;;;15.00;10.17;;;13.60;99.90;;;;;;4979236;28;20659;-77
2023/03/22 09:03:06;;;;;;;12.07;9.43;;;13.80;99.90;;;;;;4985013;28;20274;-79
2023/03/22 09:05:32;;;;;;;9.67;8.47;;;13.70;99.90;;;;;;4996810;28;20193;-72
2023/03/22 09:07:57;;;;;;;9.50;8.70;;;13.60;99.90;;;;;;4997106;28;20192;-82
2023/03/22 09:10:23;;;;;;;13.37;9.90;;;13.60;99.90;;;;;;4990887;28;20262;-78
2023/03/22 09:12:48;;;;;;;10.70;9.57;;;13.60;99.90;;;;;;4996787;28;20199;-80
2023/03/22 09:15:14;;;;;;;10.00;8.53;;;13.60;99.90;;;;;;4985352;28;20200;-80
2023/03/22 09:17:39;;;;;;;15.70;9.00;;;13.70;99.90;;;;;;4986443;28;20208;-78
2023/03/22 09:20:06;;;;;;;11.07;8.53;;;14.00;99.90;;;;;;4985719;28;20693;-64
2023/03/22 09:22:32;;;;;;;10.37;8.43;;;14.00;99.90;;;;;;4993389;28;20202;-81
2023/03/22 09:24:57;;;;;;;9.47;8.17;;;14.00;99.90;;;;;;4985026;28;20566;-82
2023/03/22 09:27:23;;;;;;;11.37;8.83;;;14.00;99.90;;;;;;4977581;28;20246;-81
2023/03/22 09:29:50;;;;;;;11.20;8.67;;;14.20;99.90;;;;;;4977583;28;20623;-78
2023/03/22 09:32:16;;;;;;;11.10;9.90;;;14.40;99.90;;;;;;4977683;28;20266;-80
2023/03/22 09:34:42;;;;;;;9.43;7.87;;;14.60;99.90;;;;;;4976243;28;20236;-73
2023/03/22 09:37:07;;;;;;;9.87;7.87;;;14.80;99.90;;;;;;4976440;28;20185;-74
2023/03/22 09:39:33;;;;;;;9.80;8.47;;;15.10;99.90;;;;;;4976642;28;20785;-73
2023/03/22 09:42:03;;;;;;;12.97;8.70;;;15.20;99.90;;;;;;4977166;28;20196;-73
2023/03/22 09:44:43;;;;;;;8.33;7.53;;;15.00;99.90;;;;;;4981404;28;20240;-81
2023/03/22 09:47:20;;;;;;;11.03;8.80;;;15.00;99.90;;;;;;4977002;28;20208;-85
2023/03/22 09:49:49;;;;;;;10.73;8.07;;;15.00;99.90;;;;;;4974549;28;20209;-74
2023/03/22 09:52:16;;;;;;;9.33;7.93;;;15.20;99.90;;;;;;4983352;28;20218;-86
2023/03/22 09:54:44;;;;;;;9.30;8.33;;;15.30;99.90;;;;;;4988262;28;20212;-86
2023/03/22 09:57:36;;;;;;;9.00;7.63;;;15.30;99.90;;;;;;4991714;28;20205;-86
2023/03/22 10:00:10;;;;;;;12.03;8.27;;;15.30;99.90;;;;;;4988488;28;20804;-85
2023/03/22 10:03:03;;;;;;;9.20;7.77;;;15.40;99.90;;;;;;4984374;28;20286;-87
2023/03/22 10:05:42;;;;;;;8.50;7.13;;;15.60;99.90;;;;;;4992883;28;20823;-87
2023/03/22 10:08:22;;;;;;;10.10;7.43;;;15.90;99.90;;;;;;4983822;28;20201;-85
2023/03/22 10:10:49;;;;;;;8.77;7.97;;;16.30;99.90;;;;;;4985947;28;20704;-86
2023/03/22 10:13:22;;;;;;;9.63;7.17;;;16.50;99.90;;;;;;4983634;28;20207;-80
2023/03/22 10:15:54;;;;;;;11.63;6.87;;;16.40;99.90;;;;;;4986249;28;20211;-81
2023/03/22 10:18:26;;;;;;;8.33;6.60;;;16.30;99.90;;;;;;4985711;28;20212;-82
2023/03/22 10:21:04;;;;;;;7.90;6.40;;;16.40;99.90;;;;;;4985937;28;20678;-84
2023/03/22 10:23:44;;;;;;;7.13;6.33;;;16.30;99.90;;;;;;4984523;28;20224;-76
2023/03/22 10:26:19;;;;;;;6.93;5.63;;;16.30;99.90;;;;;;4984055;28;20286;-74
2023/03/22 10:28:52;;;;;;;8.10;6.50;;;16.20;99.90;;;;;;4984791;28;20291;-73
2023/03/22 10:31:20;;;;;;;8.43;7.00;;;16.30;99.90;;;;;;4985835;28;20200;-72
2023/03/22 10:33:57;;;;;;;8.63;6.23;;;16.50;99.90;;;;;;4982107;28;20229;-72
2023/03/22 10:36:29;;;;;;;11.37;6.87;;;16.70;99.90;;;;;;4983720;28;20667;-72
2023/03/22 10:38:59;;;;;;;7.00;6.20;;;16.80;99.90;;;;;;4984210;28;20574;-74
2023/03/22 10:41:26;;;;;;;7.97;5.93;;;16.80;99.90;;;;;;4985030;28;20631;-72
2023/03/22 10:43:56;;;;;;;6.93;5.83;;;16.90;99.90;;;;;;4984459;28;20231;-72
2023/03/22 10:46:26;;;;;;;7.17;5.67;;;16.90;99.90;;;;;;4987399;28;20195;-71
2023/03/22 10:48:56;;;;;;;8.03;6.87;;;16.80;99.90;;;;;;4986701;28;20205;-71
2023/03/22 10:51:43;;;;;;;6.70;5.97;;;16.80;99.90;;;;;;4986782;28;20643;-72
2023/03/22 10:54:13;;;;;;;7.00;6.40;;;16.80;99.90;;;;;;4988190;28;20679;-72
2023/03/22 10:56:38;;;;;;;8.83;6.43;;;16.80;99.90;;;;;;4989848;28;20662;-72
2023/03/22 10:59:04;;;;;;;6.63;5.40;;;16.80;99.90;;;;;;4987968;28;20200;-71
2023/03/22 11:01:38;;;;;;;6.83;6.13;;;16.90;99.90;;;;;;4987276;28;20238;-72
2023/03/22 11:04:13;;;;;;;5.60;5.03;;;16.90;99.90;;;;;;4987682;28;20299;-71
2023/03/22 11:06:48;;;;;;;7.00;6.03;;;17.00;99.90;;;;;;4989558;28;20561;-71
2023/03/22 11:09:23;;;;;;;8.63;5.53;;;16.90;99.90;;;;;;4986851;28;20196;-72
2023/03/22 11:11:55;;;;;;;9.10;5.37;;;17.00;99.90;;;;;;4988938;28;20301;-72
2023/03/22 11:14:32;;;;;;;7.77;5.20;;;16.90;99.90;;;;;;4970379;28;20223;-71
2023/03/22 11:17:06;;;;;;;7.40;5.33;;;17.10;99.90;;;;;;4989399;28;20726;-71
2023/03/22 11:19:40;;;;;;;5.60;4.93;;;17.20;99.90;;;;;;4986323;28;20218;-71
2023/03/22 11:22:32;;;;;;;6.67;5.67;;;17.20;99.90;;;;;;4987284;28;20683;-72
2023/03/22 11:24:59;;;;;;;5.30;4.63;;;16.90;99.90;;;;;;4988701;28;20783;-71
2023/03/22 11:27:32;;;;;;;9.07;6.47;;;16.80;99.90;;;;;;4987994;28;20219;-70
2023/03/22 11:30:15;;;;;;;5.93;4.63;;;16.90;99.90;;;;;;4986748;28;20681;-70
2023/03/22 11:32:41;;;;;;;5.23;4.70;;;16.90;99.90;;;;;;4987580;28;20574;-72
2023/03/22 11:35:19;;;;;;;6.33;4.93;;;17.00;99.90;;;;;;4986372;28;20226;-72
2023/03/22 11:37:47;;;;;;;4.80;4.27;;;16.90;99.90;;;;;;4988459;28;20739;-70
2023/03/22 11:40:25;;;;;;;7.13;4.13;;;16.90;99.80;;;;;;4987963;28;20203;-72
2023/03/22 11:42:57;;;;;;;5.03;4.03;;;17.10;99.80;;;;;;4987790;28;20228;-72
2023/03/22 11:45:31;;;;;;;4.90;4.50;;;17.40;99.50;;;;;;4992491;28;20338;-73
2023/03/22 11:48:14;;;;;;;5.40;3.97;;;17.50;99.50;;;;;;4995433;28;20662;-72
2023/03/22 11:50:41;;;;;;;5.07;4.00;;;17.50;98.60;;;;;;4993580;28;20207;-74
2023/03/22 11:53:13;;;;;;;3.37;3.07;;;17.40;98.10;;;;;;4994910;28;20572;-74
2023/03/22 11:55:40;;;;;;;6.30;4.50;;;17.50;98.10;;;;;;4978246;28;20216;-73
2023/03/22 11:58:06;;;;;;;4.70;3.20;;;17.70;98.10;;;;;;4977807;28;20743;-78
2023/03/22 12:00:36;;;;;;;4.60;3.63;;;18.10;98.20;;;;;;4981991;28;20228;-80
2023/03/22 12:03:15;;;;;;;7.30;4.37;;;18.50;96.90;;;;;;4993595;28;20229;-74
2023/03/22 12:05:45;;;;;;;3.97;3.50;;;19.10;95.30;;;;;;4988824;28;20589;-76
2023/03/22 12:08:26;;;;;;;4.57;3.43;;;19.20;94.10;;;;;;4987180;28;20206;-73
2023/03/22 12:11:06;;;;;;;3.43;3.13;;;19.20;94.10;;;;;;4988080;28;20231;-75
2023/03/22 12:13:42;;;;;;;4.90;3.63;;;18.70;94.10;;;;;;4976529;28;20199;-74
2023/03/22 12:16:13;;;;;;;4.80;3.50;;;18.60;94.10;;;;;;4977587;28;20202;-75
2023/03/22 12:18:41;;;;;;;6.90;3.30;;;19.00;93.30;;;;;;4977900;28;20199;-75
2023/03/22 12:21:09;;;;;;;5.33;3.00;;;19.20;92.20;;;;;;4977187;28;20199;-81
2023/03/22 12:23:35;;;;;;;3.77;3.20;;;19.30;92.40;;;;;;4977784;28;20766;-77
2023/03/22 12:26:02;;;;;;;5.83;4.13;;;19.50;91.50;;;;;;4977803;28;20201;-78
2023/03/22 12:28:58;;;;;;;5.30;3.40;;;19.30;91.50;;;;;;4980334;28;20275;-78
2023/03/22 12:31:32;;;;;;;4.63;3.70;;;19.20;92.70;;;;;;4993591;28;20214;-79
2023/03/22 12:34:07;;;;;;;4.17;3.70;;;19.60;91.70;;;;;;4996507;28;20262;-79
2023/03/22 12:36:42;;;;;;;4.70;3.93;;;19.30;92.10;;;;;;4987348;28;20269;-73
2023/03/22 12:39:16;;;;;;;5.50;3.77;;;19.10;91.90;;;;;;4987524;28;20201;-77
2023/03/22 12:41:46;;;;;;;4.60;3.50;;;19.50;92.00;;;;;;4987524;28;20212;-76
2023/03/22 12:44:49;;;;;;;4.77;3.23;;;20.20;90.80;;;;;;4986011;28;20225;-74
2023/03/22 12:47:31;;;;;;;4.47;3.87;;;20.70;90.10;;;;;;4895090;29;20707;-74
2023/03/22 12:50:06;;;;;;;3.37;3.00;;;20.40;89.00;;;;;;4976771;28;20272;-80
2023/03/22 12:52:46;;;;;;;4.07;3.67;;;20.40;89.00;;;;;;4987063;28;20654;-82